sensor_id;sensor_type;location;lat;lon;timestamp;P1;P2;P0
84339;PMS7003;74521;45.618;5.212;2024-03-23T00:52:02;6.50;3.00;3.00
84339;PMS7003;74521;45.618;5.212;2024-03-23T00:54:29;1.75;1.50;1.00
84339;PMS7003;74521;45.618;5.212;2024-03-23T00:56:55;3.00;3.00;2.00
84339;PMS7003;74521;45.618;5.212;2024-03-23T00:59:21;3.00;3.00;2.00
84339;PMS7003;74521;45.618;5.212;2024-03-23T01:01:52;2.50;2.50;2.00
84339;PMS7003;74521;45.618;5.212;2024-03-23T01:04:17;4.00;2.75;2.25
84339;PMS7003;74521;45.618;5.212;2024-03-23T01:06:44;4.00;2.75;2.00
84339;PMS7003;74521;45.618;5.212;2024-03-23T01:09:11;2.50;2.50;2.00
84339;PMS7003;74521;45.618;5.212;2024-03-23T01:11:38;3.00;3.00;2.50
84339;PMS7003;74521;45.618;5.212;2024-03-23T01:14:04;6.00;2.00;2.00
84339;PMS7003;74521;45.618;5.212;2024-03-23T01:16:31;2.00;2.00;2.00
84339;PMS7003;74521;45.618;5.212;2024-03-23T01:18:57;2.75;2.75;2.00
84339;PMS7003;74521;45.618;5.212;2024-03-23T01:21:23;2.00;2.00;2.00
84339;PMS7003;74521;45.618;5.212;2024-03-23T01:23:49;2.00;2.00;2.00
84339;PMS7003;74521;45.618;5.212;2024-03-23T01:26:17;2.00;2.00;2.00
84339;PMS7003;74521;45.618;5.212;2024-03-23T01:28:43;2.00;2.00;1.00
84339;PMS7003;74521;45.618;5.212;2024-03-23T01:31:09;2.25;2.25;2.00
84339;PMS7003;74521;45.618;5.212;2024-03-23T01:33:35;3.00;3.00;2.00
84339;PMS7003;74521;45.618;5.212;2024-03-23T01:36:02;5.00;3.00;3.00
84339;PMS7003;74521;45.618;5.212;2024-03-23T01:38:28;0.75;0.75;0.00
84339;PMS7003;74521;45.618;5.212;2024-03-23T01:40:56;2.00;2.00;2.00
84339;PMS7003;74521;45.618;5.212;2024-03-23T01:43:24;2.25;2.25;2.00
84339;PMS7003;74521;45.618;5.212;2024-03-23T01:45:51;5.00;3.50;3.00
84339;PMS7003;74521;45.618;5.212;2024-03-23T01:48:18;2.00;2.00;2.00
84339;PMS7003;74521;45.618;5.212;2024-03-23T01:50:45;4.00;3.00;2.00
84339;PMS7003;74521;45.618;5.212;2024-03-23T01:53:11;2.25;2.25;1.50
84339;PMS7003;74521;45.618;5.212;2024-03-23T01:55:42;3.25;2.75;2.25
84339;PMS7003;74521;45.618;5.212;2024-03-23T01:58:07;2.25;2.25;2.00
84339;PMS7003;74521;45.618;5.212;2024-03-23T02:00:35;2.50;2.00;2.00
84339;PMS7003;74521;45.618;5.212;2024-03-23T02:03:01;3.00;3.00;2.75
84339;PMS7003;74521;45.618;5.212;2024-03-23T02:05:28;4.00;3.00;2.25
84339;PMS7003;74521;45.618;5.212;2024-03-23T02:07:53;2.00;2.00;2.00
84339;PMS7003;74521;45.618;5.212;2024-03-23T02:10:20;2.25;2.25;2.00
84339;PMS7003;74521;45.618;5.212;2024-03-23T02:12:46;2.50;2.00;2.00
84339;PMS7003;74521;45.618;5.212;2024-03-23T02:15:12;2.50;2.50;1.50
84339;PMS7003;74521;45.618;5.212;2024-03-23T02:17:39;2.00;2.00;2.00
84339;PMS7003;74521;45.618;5.212;2024-03-23T02:20:06;2.00;2.00;2.00
84339;PMS7003;74521;45.618;5.212;2024-03-23T02:22:36;3.00;3.00;2.00
84339;PMS7003;74521;45.618;5.212;2024-03-23T02:25:05;3.00;3.00;2.00
84339;PMS7003;74521;45.618;5.212;2024-03-23T02:27:31;5.75;2.25;2.00
84339;PMS7003;74521;45.618;5.212;2024-03-23T02:29:58;3.00;3.00;2.25
84339;PMS7003;74521;45.618;5.212;2024-03-23T02:32:24;2.00;2.00;1.00
84339;PMS7003;74521;45.618;5.212;2024-03-23T02:34:51;2.25;2.25;2.00
84339;PMS7003;74521;45.618;5.212;2024-03-23T02:37:16;4.50;3.00;2.00
84339;PMS7003;74521;45.618;5.212;2024-03-23T02:39:43;1.25;1.25;1.00
84339;PMS7003;74521;45.618;5.212;2024-03-23T02:42:10;4.00;3.00;2.00
84339;PMS7003;74521;45.618;5.212;2024-03-23T02:44:36;2.00;2.00;2.00
84339;PMS7003;74521;45.618;5.212;2024-03-23T02:47:02;3.00;2.00;2.00
84339;PMS7003;74521;45.618;5.212;2024-03-23T02:49:29;2.50;2.00;1.75
84339;PMS7003;74521;45.618;5.212;2024-03-23T02:51:54;4.00;2.75;2.00
84339;PMS7003;74521;45.618;5.212;2024-03-23T02:54:21;3.00;3.00;3.00
84339;PMS7003;74521;45.618;5.212;2024-03-23T02:56:47;4.25;3.00;2.00
84339;PMS7003;74521;45.618;5.212;2024-03-23T02:59:15;3.00;3.00;2.00
84339;PMS7003;74521;45.618;5.212;2024-03-23T03:01:40;3.00;1.00;1.00
84339;PMS7003;74521;45.618;5.212;2024-03-23T03:04:07;2.00;2.00;1.50
84339;PMS7003;74521;45.618;5.212;2024-03-23T03:06:33;2.00;2.00;2.00
84339;PMS7003;74521;45.618;5.212;2024-03-23T03:08:59;2.00;2.00;2.00
84339;PMS7003;74521;45.618;5.212;2024-03-23T03:11:25;4.00;3.00;3.00
84339;PMS7003;74521;45.618;5.212;2024-03-23T03:13:52;1.50;1.50;1.00
84339;PMS7003;74521;45.618;5.212;2024-03-23T03:16:22;1.50;1.50;1.25
84339;PMS7003;74521;45.618;5.212;2024-03-23T03:18:51;3.00;2.75;2.50
84339;PMS7003;74521;45.618;5.212;2024-03-23T03:21:17;3.00;2.00;2.00
84339;PMS7003;74521;45.618;5.212;2024-03-23T03:23:44;4.25;2.00;2.00
84339;PMS7003;74521;45.618;5.212;2024-03-23T03:26:10;2.50;2.50;2.00
84339;PMS7003;74521;45.618;5.212;2024-03-23T03:28:37;5.00;3.00;2.75
84339;PMS7003;74521;45.618;5.212;2024-03-23T03:31:03;2.50;2.00;2.00
84339;PMS7003;74521;45.618;5.212;2024-03-23T03:33:31;2.00;2.00;1.75
84339;PMS7003;74521;45.618;5.212;2024-03-23T03:35:56;2.25;2.25;2.00
84339;PMS7003;74521;45.618;5.212;2024-03-23T03:38:23;2.00;2.00;2.00
84339;PMS7003;74521;45.618;5.212;2024-03-23T03:40:48;3.75;2.75;2.00
84339;PMS7003;74521;45.618;5.212;2024-03-23T03:43:15;1.75;1.75;1.00
84339;PMS7003;74521;45.618;5.212;2024-03-23T03:45:41;1.25;1.25;1.00
84339;PMS7003;74521;45.618;5.212;2024-03-23T03:48:07;2.75;2.75;2.00
84339;PMS7003;74521;45.618;5.212;2024-03-23T03:50:34;3.00;3.00;2.25
84339;PMS7003;74521;45.618;5.212;2024-03-23T03:53:01;3.00;3.00;2.25
84339;PMS7003;74521;45.618;5.212;2024-03-23T03:55:27;4.50;2.00;1.75
84339;PMS7003;74521;45.618;5.212;2024-03-23T03:57:53;3.50;2.25;2.00
84339;PMS7003;74521;45.618;5.212;2024-03-23T04:00:19;4.50;2.25;2.00
84339;PMS7003;74521;45.618;5.212;2024-03-23T04:02:46;2.00;2.00;1.00
84339;PMS7003;74521;45.618;5.212;2024-03-23T04:05:12;1.75;1.75;1.75
84339;PMS7003;74521;45.618;5.212;2024-03-23T04:07:40;2.00;2.00;1.75
84339;PMS7003;74521;45.618;5.212;2024-03-23T04:10:06;4.25;2.00;2.00
84339;PMS7003;74521;45.618;5.212;2024-03-23T04:12:33;3.00;2.00;2.00
84339;PMS7003;74521;45.618;5.212;2024-03-23T04:14:59;2.25;2.00;1.75
84339;PMS7003;74521;45.618;5.212;2024-03-23T04:17:28;2.00;2.00;2.00
84339;PMS7003;74521;45.618;5.212;2024-03-23T04:19:57;2.75;2.75;2.00
84339;PMS7003;74521;45.618;5.212;2024-03-23T04:22:24;3.00;2.00;2.00
84339;PMS7003;74521;45.618;5.212;2024-03-23T04:24:52;2.00;2.00;2.00
84339;PMS7003;74521;45.618;5.212;2024-03-23T04:27:19;3.00;3.00;2.00
84339;PMS7003;74521;45.618;5.212;2024-03-23T04:29:46;1.25;1.25;1.00
84339;PMS7003;74521;45.618;5.212;2024-03-23T04:32:14;3.00;3.00;2.00
84339;PMS7003;74521;45.618;5.212;2024-03-23T04:34:39;1.00;1.00;1.00
84339;PMS7003;74521;45.618;5.212;2024-03-23T04:37:06;1.00;1.00;1.00
84339;PMS7003;74521;45.618;5.212;2024-03-23T04:39:33;2.25;2.25;2.00
84339;PMS7003;74521;45.618;5.212;2024-03-23T04:42:01;1.00;1.00;1.00
84339;PMS7003;74521;45.618;5.212;2024-03-23T04:44:28;2.25;2.25;2.00
84339;PMS7003;74521;45.618;5.212;2024-03-23T04:46:55;2.50;2.50;2.00
84339;PMS7003;74521;45.618;5.212;2024-03-23T04:49:22;3.00;3.00;2.00
84339;PMS7003;74521;45.618;5.212;2024-03-23T04:51:49;2.00;2.00;2.00
84339;PMS7003;74521;45.618;5.212;2024-03-23T04:54:15;2.00;2.00;2.00
84339;PMS7003;74521;45.618;5.212;2024-03-23T04:56:41;2.00;2.00;2.00
84339;PMS7003;74521;45.618;5.212;2024-03-23T04:59:09;3.50;2.00;1.75
84339;PMS7003;74521;45.618;5.212;2024-03-23T05:01:36;2.50;2.25;2.00
84339;PMS7003;74521;45.618;5.212;2024-03-23T05:04:06;2.00;2.00;1.00
84339;PMS7003;74521;45.618;5.212;2024-03-23T05:06:32;4.00;3.00;2.25
84339;PMS7003;74521;45.618;5.212;2024-03-23T05:08:59;2.00;2.00;2.00
84339;PMS7003;74521;45.618;5.212;2024-03-23T05:11:25;2.00;2.00;2.00
84339;PMS7003;74521;45.618;5.212;2024-03-23T05:13:51;2.50;2.00;1.75
84339;PMS7003;74521;45.618;5.212;2024-03-23T05:16:18;3.00;3.00;2.50
84339;PMS7003;74521;45.618;5.212;2024-03-23T05:18:45;4.00;2.00;2.00
84339;PMS7003;74521;45.618;5.212;2024-03-23T05:21:11;1.25;1.25;1.00
84339;PMS7003;74521;45.618;5.212;2024-03-23T05:23:37;1.00;1.00;0.00
84339;PMS7003;74521;45.618;5.212;2024-03-23T05:26:03;3.00;3.00;2.25
84339;PMS7003;74521;45.618;5.212;2024-03-23T05:28:30;3.00;3.00;2.00
84339;PMS7003;74521;45.618;5.212;2024-03-23T05:30:55;2.25;2.25;2.00
84339;PMS7003;74521;45.618;5.212;2024-03-23T05:33:24;3.25;2.00;1.25
84339;PMS7003;74521;45.618;5.212;2024-03-23T05:35:55;3.00;3.00;2.00
84339;PMS7003;74521;45.618;5.212;2024-03-23T05:38:23;4.00;3.00;2.00
84339;PMS7003;74521;45.618;5.212;2024-03-23T05:40:52;3.50;2.25;2.25
84339;PMS7003;74521;45.618;5.212;2024-03-23T05:43:20;2.75;2.75;2.00
84339;PMS7003;74521;45.618;5.212;2024-03-23T05:45:52;2.75;2.25;2.00
84339;PMS7003;74521;45.618;5.212;2024-03-23T05:48:18;3.75;2.00;2.00
84339;PMS7003;74521;45.618;5.212;2024-03-23T05:50:46;5.25;3.25;3.00
84339;PMS7003;74521;45.618;5.212;2024-03-23T05:53:12;2.50;2.00;2.00
84339;PMS7003;74521;45.618;5.212;2024-03-23T05:55:39;2.50;2.50;2.00
84339;PMS7003;74521;45.618;5.212;2024-03-23T05:58:04;2.50;2.50;2.00
84339;PMS7003;74521;45.618;5.212;2024-03-23T06:00:31;2.00;2.00;2.00
84339;PMS7003;74521;45.618;5.212;2024-03-23T06:02:57;3.25;2.50;2.00
84339;PMS7003;74521;45.618;5.212;2024-03-23T06:05:23;1.75;1.75;1.50
84339;PMS7003;74521;45.618;5.212;2024-03-23T06:07:50;3.25;2.50;2.50
84339;PMS7003;74521;45.618;5.212;2024-03-23T06:10:17;2.50;2.50;2.00
84339;PMS7003;74521;45.618;5.212;2024-03-23T06:12:43;2.75;1.75;1.75
84339;PMS7003;74521;45.618;5.212;2024-03-23T06:15:11;2.25;2.00;1.75
84339;PMS7003;74521;45.618;5.212;2024-03-23T06:17:37;1.50;1.50;1.50
84339;PMS7003;74521;45.618;5.212;2024-03-23T06:20:04;2.50;2.00;2.00
84339;PMS7003;74521;45.618;5.212;2024-03-23T06:22:31;2.75;2.00;2.00
84339;PMS7003;74521;45.618;5.212;2024-03-23T06:25:00;4.00;2.00;1.75
84339;PMS7003;74521;45.618;5.212;2024-03-23T06:27:25;2.50;2.50;2.00
84339;PMS7003;74521;45.618;5.212;2024-03-23T06:29:52;3.00;3.00;2.75
84339;PMS7003;74521;45.618;5.212;2024-03-23T06:32:18;2.75;2.75;2.00
84339;PMS7003;74521;45.618;5.212;2024-03-23T06:34:44;4.25;3.00;2.00
84339;PMS7003;74521;45.618;5.212;2024-03-23T06:37:10;2.00;2.00;2.00
84339;PMS7003;74521;45.618;5.212;2024-03-23T06:39:37;3.00;2.00;2.00
84339;PMS7003;74521;45.618;5.212;2024-03-23T06:42:05;4.00;3.00;3.00
84339;PMS7003;74521;45.618;5.212;2024-03-23T06:44:33;3.00;3.00;2.00
84339;PMS7003;74521;45.618;5.212;2024-03-23T06:46:58;3.00;3.00;2.00
84339;PMS7003;74521;45.618;5.212;2024-03-23T06:49:25;4.00;3.75;3.50
84339;PMS7003;74521;45.618;5.212;2024-03-23T06:51:51;2.00;2.00;2.00
84339;PMS7003;74521;45.618;5.212;2024-03-23T06:54:19;4.00;2.75;2.00
84339;PMS7003;74521;45.618;5.212;2024-03-23T06:56:46;5.00;3.25;3.00
84339;PMS7003;74521;45.618;5.212;2024-03-23T06:59:13;3.00;2.00;2.00
84339;PMS7003;74521;45.618;5.212;2024-03-23T07:01:40;2.25;2.00;1.50
84339;PMS7003;74521;45.618;5.212;2024-03-23T07:04:05;3.00;2.00;2.00
84339;PMS7003;74521;45.618;5.212;2024-03-23T07:06:32;2.00;2.00;2.00
84339;PMS7003;74521;45.618;5.212;2024-03-23T07:08:58;2.50;2.00;2.00
84339;PMS7003;74521;45.618;5.212;2024-03-23T07:11:25;2.00;2.00;2.00
84339;PMS7003;74521;45.618;5.212;2024-03-23T07:13:51;6.00;3.00;2.50
84339;PMS7003;74521;45.618;5.212;2024-03-23T07:16:21;3.00;3.00;2.75
84339;PMS7003;74521;45.618;5.212;2024-03-23T07:18:46;3.50;2.25;1.00
84339;PMS7003;74521;45.618;5.212;2024-03-23T07:21:14;4.25;2.00;2.00
84339;PMS7003;74521;45.618;5.212;2024-03-23T07:23:41;1.75;1.75;1.75
84339;PMS7003;74521;45.618;5.212;2024-03-23T07:26:09;4.25;3.00;2.00
84339;PMS7003;74521;45.618;5.212;2024-03-23T07:28:35;3.00;2.00;2.00
84339;PMS7003;74521;45.618;5.212;2024-03-23T07:31:03;3.00;1.75;1.25
84339;PMS7003;74521;45.618;5.212;2024-03-23T07:33:31;2.00;2.00;1.50
84339;PMS7003;74521;45.618;5.212;2024-03-23T07:35:58;1.00;1.00;0.75
84339;PMS7003;74521;45.618;5.212;2024-03-23T07:38:25;1.00;1.00;0.75
84339;PMS7003;74521;45.618;5.212;2024-03-23T07:41:02;1.00;0.00;0.00
84339;PMS7003;74521;45.618;5.212;2024-03-23T07:43:29;1.00;1.00;0.50
84339;PMS7003;74521;45.618;5.212;2024-03-23T07:45:55;0.00;0.00;0.00
84339;PMS7003;74521;45.618;5.212;2024-03-23T07:48:21;0.00;0.00;0.00
84339;PMS7003;74521;45.618;5.212;2024-03-23T07:50:56;0.00;0.00;0.00
84339;PMS7003;74521;45.618;5.212;2024-03-23T07:53:27;1.00;0.00;0.00
84339;PMS7003;74521;45.618;5.212;2024-03-23T07:55:57;0.00;0.00;0.00
84339;PMS7003;74521;45.618;5.212;2024-03-23T07:58:24;0.00;0.00;0.00
84339;PMS7003;74521;45.618;5.212;2024-03-23T08:00:50;0.00;0.00;0.00
84339;PMS7003;74521;45.618;5.212;2024-03-23T08:03:17;0.00;0.00;0.00
84339;PMS7003;74521;45.618;5.212;2024-03-23T08:05:43;0.00;0.00;0.00
84339;PMS7003;74521;45.618;5.212;2024-03-23T08:08:11;0.00;0.00;0.00
84339;PMS7003;74521;45.618;5.212;2024-03-23T08:10:36;0.00;0.00;0.00
84339;PMS7003;74521;45.618;5.212;2024-03-23T08:13:03;0.00;0.00;0.00
84339;PMS7003;74521;45.618;5.212;2024-03-23T08:15:30;0.00;0.00;0.00
84339;PMS7003;74521;45.618;5.212;2024-03-23T08:17:58;0.00;0.00;0.00
84339;PMS7003;74521;45.618;5.212;2024-03-23T08:20:24;0.50;0.00;0.00
84339;PMS7003;74521;45.618;5.212;2024-03-23T08:22:50;0.00;0.00;0.00
84339;PMS7003;74521;45.618;5.212;2024-03-23T08:25:17;0.00;0.00;0.00
84339;PMS7003;74521;45.618;5.212;2024-03-23T08:27:44;0.00;0.00;0.00
84339;PMS7003;74521;45.618;5.212;2024-03-23T08:30:10;1.00;1.00;0.00
84339;PMS7003;74521;45.618;5.212;2024-03-23T08:32:37;1.50;0.00;0.00
84339;PMS7003;74521;45.618;5.212;2024-03-23T08:35:03;0.00;0.00;0.00
84339;PMS7003;74521;45.618;5.212;2024-03-23T08:37:30;0.00;0.00;0.00
84339;PMS7003;74521;45.618;5.212;2024-03-23T08:39:56;2.00;0.00;0.00
84339;PMS7003;74521;45.618;5.212;2024-03-23T08:42:24;1.00;0.00;0.00
84339;PMS7003;74521;45.618;5.212;2024-03-23T08:44:49;0.25;0.00;0.00
84339;PMS7003;74521;45.618;5.212;2024-03-23T08:47:16;0.00;0.00;0.00
84339;PMS7003;74521;45.618;5.212;2024-03-23T08:49:42;0.50;0.00;0.00
84339;PMS7003;74521;45.618;5.212;2024-03-23T08:52:10;0.00;0.00;0.00
84339;PMS7003;74521;45.618;5.212;2024-03-23T08:54:35;0.00;0.00;0.00
84339;PMS7003;74521;45.618;5.212;2024-03-23T08:57:02;0.00;0.00;0.00
84339;PMS7003;74521;45.618;5.212;2024-03-23T08:59:30;0.00;0.00;0.00
84339;PMS7003;74521;45.618;5.212;2024-03-23T09:01:56;0.00;0.00;0.00
84339;PMS7003;74521;45.618;5.212;2024-03-23T09:04:23;0.50;0.00;0.00
84339;PMS7003;74521;45.618;5.212;2024-03-23T09:06:48;0.00;0.00;0.00
84339;PMS7003;74521;45.618;5.212;2024-03-23T09:09:16;2.50;0.00;0.00
84339;PMS7003;74521;45.618;5.212;2024-03-23T09:11:41;0.00;0.00;0.00
84339;PMS7003;74521;45.618;5.212;2024-03-23T09:14:08;1.50;0.00;0.00
84339;PMS7003;74521;45.618;5.212;2024-03-23T09:16:35;0.00;0.00;0.00
84339;PMS7003;74521;45.618;5.212;2024-03-23T09:19:02;0.25;0.00;0.00
84339;PMS7003;74521;45.618;5.212;2024-03-23T09:21:28;0.00;0.00;0.00
84339;PMS7003;74521;45.618;5.212;2024-03-23T09:23:54;0.00;0.00;0.00
84339;PMS7003;74521;45.618;5.212;2024-03-23T09:26:20;0.00;0.00;0.00
84339;PMS7003;74521;45.618;5.212;2024-03-23T09:28:48;1.75;0.00;0.00
84339;PMS7003;74521;45.618;5.212;2024-03-23T09:31:13;0.00;0.00;0.00
84339;PMS7003;74521;45.618;5.212;2024-03-23T09:33:42;0.00;0.00;0.00
84339;PMS7003;74521;45.618;5.212;2024-03-23T09:36:08;0.00;0.00;0.00
84339;PMS7003;74521;45.618;5.212;2024-03-23T09:38:35;2.50;0.00;0.00
84339;PMS7003;74521;45.618;5.212;2024-03-23T09:41:06;0.00;0.00;0.00
84339;PMS7003;74521;45.618;5.212;2024-03-23T09:43:34;0.00;0.00;0.00
84339;PMS7003;74521;45.618;5.212;2024-03-23T09:45:59;0.75;0.00;0.00
84339;PMS7003;74521;45.618;5.212;2024-03-23T09:48:28;0.00;0.00;0.00
84339;PMS7003;74521;45.618;5.212;2024-03-23T09:50:56;0.00;0.00;0.00
84339;PMS7003;74521;45.618;5.212;2024-03-23T09:53:23;1.75;0.00;0.00
84339;PMS7003;74521;45.618;5.212;2024-03-23T09:55:48;3.50;0.00;0.00
84339;PMS7003;74521;45.618;5.212;2024-03-23T09:58:16;0.75;0.00;0.00
84339;PMS7003;74521;45.618;5.212;2024-03-23T10:00:43;1.00;0.00;0.00
84339;PMS7003;74521;45.618;5.212;2024-03-23T10:03:10;0.00;0.00;0.00
84339;PMS7003;74521;45.618;5.212;2024-03-23T10:05:36;0.00;0.00;0.00
84339;PMS7003;74521;45.618;5.212;2024-03-23T10:08:18;0.00;0.00;0.00
84339;PMS7003;74521;45.618;5.212;2024-03-23T10:10:44;2.00;0.00;0.00
84339;PMS7003;74521;45.618;5.212;2024-03-23T10:13:23;0.00;0.00;0.00
84339;PMS7003;74521;45.618;5.212;2024-03-23T10:15:54;0.00;0.00;0.00
84339;PMS7003;74521;45.618;5.212;2024-03-23T10:18:21;1.25;0.00;0.00
84339;PMS7003;74521;45.618;5.212;2024-03-23T10:20:50;0.00;0.00;0.00
84339;PMS7003;74521;45.618;5.212;2024-03-23T10:23:19;0.25;0.00;0.00
84339;PMS7003;74521;45.618;5.212;2024-03-23T10:25:45;0.00;0.00;0.00
84339;PMS7003;74521;45.618;5.212;2024-03-23T10:28:11;1.00;0.00;0.00
84339;PMS7003;74521;45.618;5.212;2024-03-23T10:30:37;0.25;0.00;0.00
84339;PMS7003;74521;45.618;5.212;2024-03-23T10:33:08;1.25;0.00;0.00
84339;PMS7003;74521;45.618;5.212;2024-03-23T10:35:34;0.00;0.00;0.00
84339;PMS7003;74521;45.618;5.212;2024-03-23T10:38:02;1.00;0.00;0.00
84339;PMS7003;74521;45.618;5.212;2024-03-23T10:40:31;0.00;0.00;0.00
84339;PMS7003;74521;45.618;5.212;2024-03-23T10:43:00;0.00;0.00;0.00
84339;PMS7003;74521;45.618;5.212;2024-03-23T10:45:28;1.25;0.00;0.00
84339;PMS7003;74521;45.618;5.212;2024-03-23T10:47:54;0.00;0.00;0.00
84339;PMS7003;74521;45.618;5.212;2024-03-23T10:50:20;1.50;0.00;0.00
84339;PMS7003;74521;45.618;5.212;2024-03-23T10:52:48;2.00;1.00;0.00
84339;PMS7003;74521;45.618;5.212;2024-03-23T10:55:14;0.00;0.00;0.00
84339;PMS7003;74521;45.618;5.212;2024-03-23T10:57:47;1.25;0.00;0.00
84339;PMS7003;74521;45.618;5.212;2024-03-23T11:00:16;2.50;0.00;0.00
84339;PMS7003;74521;45.618;5.212;2024-03-23T11:02:43;0.00;0.00;0.00
84339;PMS7003;74521;45.618;5.212;2024-03-23T11:05:27;0.25;0.25;0.00
84339;PMS7003;74521;45.618;5.212;2024-03-23T11:07:55;0.00;0.00;0.00
84339;PMS7003;74521;45.618;5.212;2024-03-23T11:10:24;0.00;0.00;0.00
84339;PMS7003;74521;45.618;5.212;2024-03-23T11:12:53;2.00;0.00;0.00
84339;PMS7003;74521;45.618;5.212;2024-03-23T11:15:19;0.50;0.00;0.00
84339;PMS7003;74521;45.618;5.212;2024-03-23T11:20:33;0.00;0.00;0.00
84339;PMS7003;74521;45.618;5.212;2024-03-23T11:23:00;0.00;0.00;0.00
84339;PMS7003;74521;45.618;5.212;2024-03-23T11:25:27;1.00;0.00;0.00
84339;PMS7003;74521;45.618;5.212;2024-03-23T11:27:56;0.00;0.00;0.00
84339;PMS7003;74521;45.618;5.212;2024-03-23T11:30:23;0.00;0.00;0.00
84339;PMS7003;74521;45.618;5.212;2024-03-23T11:32:51;0.00;0.00;0.00
84339;PMS7003;74521;45.618;5.212;2024-03-23T11:35:26;0.00;0.00;0.00
84339;PMS7003;74521;45.618;5.212;2024-03-23T11:38:02;0.00;0.00;0.00
84339;PMS7003;74521;45.618;5.212;2024-03-23T11:40:29;0.00;0.00;0.00
84339;PMS7003;74521;45.618;5.212;2024-03-23T11:42:58;0.75;0.00;0.00
84339;PMS7003;74521;45.618;5.212;2024-03-23T11:45:23;0.00;0.00;0.00
84339;PMS7003;74521;45.618;5.212;2024-03-23T11:48:01;0.00;0.00;0.00
84339;PMS7003;74521;45.618;5.212;2024-03-23T11:50:27;0.00;0.00;0.00
84339;PMS7003;74521;45.618;5.212;2024-03-23T11:53:05;0.00;0.00;0.00
84339;PMS7003;74521;45.618;5.212;2024-03-23T11:55:38;0.00;0.00;0.00
84339;PMS7003;74521;45.618;5.212;2024-03-23T11:58:07;0.00;0.00;0.00
84339;PMS7003;74521;45.618;5.212;2024-03-23T12:00:33;0.50;0.00;0.00
84339;PMS7003;74521;45.618;5.212;2024-03-23T12:03:00;0.00;0.00;0.00
84339;PMS7003;74521;45.618;5.212;2024-03-23T12:05:26;0.00;0.00;0.00
84339;PMS7003;74521;45.618;5.212;2024-03-23T12:07:53;1.00;0.00;0.00
84339;PMS7003;74521;45.618;5.212;2024-03-23T12:10:18;0.00;0.00;0.00
84339;PMS7003;74521;45.618;5.212;2024-03-23T12:12:45;1.00;0.00;0.00
84339;PMS7003;74521;45.618;5.212;2024-03-23T12:15:12;0.00;0.00;0.00
84339;PMS7003;74521;45.618;5.212;2024-03-23T12:17:41;0.50;0.00;0.00
84339;PMS7003;74521;45.618;5.212;2024-03-23T12:20:07;0.00;0.00;0.00
84339;PMS7003;74521;45.618;5.212;2024-03-23T12:22:34;0.00;0.00;0.00
84339;PMS7003;74521;45.618;5.212;2024-03-23T12:25:00;0.00;0.00;0.00
84339;PMS7003;74521;45.618;5.212;2024-03-23T12:27:27;0.00;0.00;0.00
84339;PMS7003;74521;45.618;5.212;2024-03-23T12:29:53;0.00;0.00;0.00
84339;PMS7003;74521;45.618;5.212;2024-03-23T12:32:21;0.00;0.00;0.00
84339;PMS7003;74521;45.618;5.212;2024-03-23T12:34:46;0.75;0.00;0.00
84339;PMS7003;74521;45.618;5.212;2024-03-23T12:37:13;0.00;0.00;0.00
84339;PMS7003;74521;45.618;5.212;2024-03-23T12:39:39;0.00;0.00;0.00
84339;PMS7003;74521;45.618;5.212;2024-03-23T12:42:06;3.00;0.00;0.00
84339;PMS7003;74521;45.618;5.212;2024-03-23T12:44:32;0.00;0.00;0.00
84339;PMS7003;74521;45.618;5.212;2024-03-23T12:46:58;0.00;0.00;0.00
84339;PMS7003;74521;45.618;5.212;2024-03-23T12:49:25;0.00;0.00;0.00
84339;PMS7003;74521;45.618;5.212;2024-03-23T12:51:55;0.00;0.00;0.00
84339;PMS7003;74521;45.618;5.212;2024-03-23T12:54:21;0.50;0.00;0.00
84339;PMS7003;74521;45.618;5.212;2024-03-23T12:56:51;0.00;0.00;0.00
84339;PMS7003;74521;45.618;5.212;2024-03-23T12:59:20;0.00;0.00;0.00
84339;PMS7003;74521;45.618;5.212;2024-03-23T13:01:47;1.00;0.00;0.00
84339;PMS7003;74521;45.618;5.212;2024-03-23T13:04:13;0.00;0.00;0.00
84339;PMS7003;74521;45.618;5.212;2024-03-23T13:06:41;0.00;0.00;0.00
84339;PMS7003;74521;45.618;5.212;2024-03-23T13:09:07;1.00;0.00;0.00
84339;PMS7003;74521;45.618;5.212;2024-03-23T13:11:34;1.00;0.00;0.00
84339;PMS7003;74521;45.618;5.212;2024-03-23T13:13:59;0.00;0.00;0.00
84339;PMS7003;74521;45.618;5.212;2024-03-23T13:16:26;0.00;0.00;0.00
84339;PMS7003;74521;45.618;5.212;2024-03-23T13:18:52;0.00;0.00;0.00
84339;PMS7003;74521;45.618;5.212;2024-03-23T13:21:18;0.00;0.00;0.00
84339;PMS7003;74521;45.618;5.212;2024-03-23T13:23:47;0.00;0.00;0.00
84339;PMS7003;74521;45.618;5.212;2024-03-23T13:26:15;0.00;0.00;0.00
84339;PMS7003;74521;45.618;5.212;2024-03-23T13:28:41;0.00;0.00;0.00
84339;PMS7003;74521;45.618;5.212;2024-03-23T13:31:07;1.00;0.00;0.00
84339;PMS7003;74521;45.618;5.212;2024-03-23T13:33:33;0.00;0.00;0.00
84339;PMS7003;74521;45.618;5.212;2024-03-23T13:36:00;0.25;0.00;0.00
84339;PMS7003;74521;45.618;5.212;2024-03-23T13:38:27;0.00;0.00;0.00
84339;PMS7003;74521;45.618;5.212;2024-03-23T13:40:55;0.00;0.00;0.00
84339;PMS7003;74521;45.618;5.212;2024-03-23T13:43:22;0.00;0.00;0.00
84339;PMS7003;74521;45.618;5.212;2024-03-23T13:45:50;0.00;0.00;0.00
84339;PMS7003;74521;45.618;5.212;2024-03-23T13:48:18;0.75;0.00;0.00
84339;PMS7003;74521;45.618;5.212;2024-03-23T13:50:46;0.75;0.00;0.00
84339;PMS7003;74521;45.618;5.212;2024-03-23T13:53:13;0.50;0.00;0.00
84339;PMS7003;74521;45.618;5.212;2024-03-23T13:55:45;0.00;0.00;0.00
84339;PMS7003;74521;45.618;5.212;2024-03-23T13:58:13;0.00;0.00;0.00
84339;PMS7003;74521;45.618;5.212;2024-03-23T14:00:40;1.00;0.00;0.00
84339;PMS7003;74521;45.618;5.212;2024-03-23T14:03:07;2.00;0.00;0.00
84339;PMS7003;74521;45.618;5.212;2024-03-23T14:05:34;0.00;0.00;0.00
84339;PMS7003;74521;45.618;5.212;2024-03-23T14:08:00;0.25;0.00;0.00
84339;PMS7003;74521;45.618;5.212;2024-03-23T14:10:26;0.00;0.00;0.00
84339;PMS7003;74521;45.618;5.212;2024-03-23T14:12:52;0.00;0.00;0.00
84339;PMS7003;74521;45.618;5.212;2024-03-23T14:15:20;0.00;0.00;0.00
84339;PMS7003;74521;45.618;5.212;2024-03-23T14:17:46;0.00;0.00;0.00
84339;PMS7003;74521;45.618;5.212;2024-03-23T14:20:13;0.00;0.00;0.00
84339;PMS7003;74521;45.618;5.212;2024-03-23T14:22:38;1.25;0.00;0.00
84339;PMS7003;74521;45.618;5.212;2024-03-23T14:25:06;0.00;0.00;0.00
84339;PMS7003;74521;45.618;5.212;2024-03-23T14:27:32;1.00;0.00;0.00
84339;PMS7003;74521;45.618;5.212;2024-03-23T14:30:02;1.00;0.00;0.00
84339;PMS7003;74521;45.618;5.212;2024-03-23T14:32:30;1.00;0.00;0.00
84339;PMS7003;74521;45.618;5.212;2024-03-23T14:34:59;0.00;0.00;0.00
84339;PMS7003;74521;45.618;5.212;2024-03-23T14:37:26;0.00;0.00;0.00
84339;PMS7003;74521;45.618;5.212;2024-03-23T14:39:51;0.00;0.00;0.00
84339;PMS7003;74521;45.618;5.212;2024-03-23T14:42:18;0.25;0.00;0.00
84339;PMS7003;74521;45.618;5.212;2024-03-23T14:44:44;0.75;0.00;0.00
84339;PMS7003;74521;45.618;5.212;2024-03-23T14:47:10;0.00;0.00;0.00
84339;PMS7003;74521;45.618;5.212;2024-03-23T14:49:38;0.00;0.00;0.00
84339;PMS7003;74521;45.618;5.212;2024-03-23T14:52:04;0.00;0.00;0.00
84339;PMS7003;74521;45.618;5.212;2024-03-23T14:54:30;0.00;0.00;0.00
84339;PMS7003;74521;45.618;5.212;2024-03-23T14:56:57;0.00;0.00;0.00
84339;PMS7003;74521;45.618;5.212;2024-03-23T14:59:23;0.00;0.00;0.00
84339;PMS7003;74521;45.618;5.212;2024-03-23T15:01:50;0.00;0.00;0.00
84339;PMS7003;74521;45.618;5.212;2024-03-23T15:04:16;0.00;0.00;0.00
84339;PMS7003;74521;45.618;5.212;2024-03-23T15:06:44;1.00;0.00;0.00
84339;PMS7003;74521;45.618;5.212;2024-03-23T15:09:11;0.00;0.00;0.00
84339;PMS7003;74521;45.618;5.212;2024-03-23T15:11:39;0.00;0.00;0.00
84339;PMS7003;74521;45.618;5.212;2024-03-23T15:14:04;0.50;0.00;0.00
84339;PMS7003;74521;45.618;5.212;2024-03-23T15:16:32;0.00;0.00;0.00